Time;durP1;ratioP1;P1;durP2;ratioP2;P2;SDS_P1;SDS_P2;PMS_P1;PMS_P2;Temp;Humidity;BMP_temperature;BMP_pressure;BME280_temperature;BME280_humidity;BME280_pressure;Samples;Min_cycle;Max_cycle;Signal;HPM_P1;HPM_P2
2022/03/21 00:00:49;;;;;;;17.20;5.55;;;3.80;99.90;;;;;;5040169;28;20417;-80
2022/03/21 00:03:18;;;;;;;11.10;5.63;;;2.90;99.90;;;;;;5045636;28;20670;-80
2022/03/21 00:05:45;;;;;;;11.13;4.40;;;;;;;;;;5048251;28;20093;-80
2022/03/21 00:08:11;;;;;;;10.02;3.92;;;;;;;;;;5046863;28;20035;-80
2022/03/21 00:10:38;;;;;;;5.07;2.83;;;;;;;;;;5047655;28;20071;-79
2022/03/21 00:13:05;;;;;;;10.48;3.90;;;;;;;;;;5047747;28;20049;-79
2022/03/21 00:15:32;;;;;;;8.27;4.80;;;;;;;;;;5038518;28;20052;-81
2022/03/21 00:17:58;;;;;;;7.10;3.75;;;;;;;;;;5048263;28;20072;-79
2022/03/21 00:20:26;;;;;;;7.20;4.20;;;;;;;;;;5042711;28;20030;-80
2022/03/21 00:22:52;;;;;;;6.28;3.40;;;;;;;;;;5047749;28;20036;-80
2022/03/21 00:25:19;;;;;;;7.72;4.15;;;;;;;;;;5044133;28;20126;-81
2022/03/21 00:27:45;;;;;;;12.25;3.30;;;;;;;;;;5046395;28;20061;-80
2022/03/21 00:30:11;;;;;;;9.00;3.92;;;;;;;;;;5038827;28;20085;-81
2022/03/21 00:32:38;;;;;;;14.18;4.78;;;;;;;;;;5044291;28;20079;-80
2022/03/21 00:35:05;;;;;;;5.35;3.13;;;;;;;;;;5041767;28;20017;-80
2022/03/21 00:37:31;;;;;;;9.93;3.67;;;;;;;;;;5045988;28;20047;-80
2022/03/21 00:39:58;;;;;;;9.18;4.05;;;;;;;;;;5051308;28;20041;-80
2022/03/21 00:42:25;;;;;;;6.78;3.00;;;;;;;;;;5041309;28;20029;-80
2022/03/21 00:44:51;;;;;;;5.60;2.85;;;;;;;;;;5040964;28;20124;-79
2022/03/21 00:47:17;;;;;;;5.15;3.03;;;;;;;;;;5043777;28;20041;-80
2022/03/21 00:49:44;;;;;;;12.10;3.63;;;;;;;;;;5050762;28;20112;-80
2022/03/21 00:52:10;;;;;;;8.02;3.13;;;;;;;;;;5045276;28;20041;-80
2022/03/21 00:54:36;;;;;;;4.35;2.45;;;;;;;;;;5037798;28;20017;-80
2022/03/21 00:57:02;;;;;;;10.70;3.42;;;;;;;;;;5045273;28;20036;-80
2022/03/21 00:59:28;;;;;;;6.40;3.70;;;;;;;;;;5046868;28;20037;-80
2022/03/21 01:01:54;;;;;;;4.57;3.03;;;;;;;;;;5041472;28;20417;-80
2022/03/21 01:04:20;;;;;;;5.80;2.50;;;;;;;;;;5047594;28;20499;-80
2022/03/21 01:06:46;;;;;;;8.00;3.15;;;;;;;;;;5044435;28;20042;-80
2022/03/21 01:09:14;;;;;;;6.28;3.60;;;;;;;;;;5041528;28;20035;-80
2022/03/21 01:11:40;;;;;;;9.73;4.63;;;;;;;;;;5040849;28;20033;-80
2022/03/21 01:14:06;;;;;;;12.70;5.03;;;;;;;;;;5047299;28;20112;-80
2022/03/21 01:16:32;;;;;;;7.22;2.42;;;;;;;;;;5044305;28;20079;-80
2022/03/21 01:18:58;;;;;;;6.78;3.33;;;;;;;;;;5041252;28;20029;-80
2022/03/21 01:21:24;;;;;;;9.00;3.67;;;;;;;;;;5041355;28;20021;-80
2022/03/21 01:23:50;;;;;;;6.65;3.33;;;;;;;;;;5040999;28;20021;-81
2022/03/21 01:26:16;;;;;;;6.65;4.30;;;;;;;;;;5035742;28;20041;-80
2022/03/21 01:28:43;;;;;;;7.78;3.47;;;;;;;;;;5048332;28;20387;-80
2022/03/21 01:31:09;;;;;;;7.35;2.95;;;;;;;;;;5046561;28;20064;-79
2022/03/21 01:33:36;;;;;;;8.23;3.90;;;;;;;;;;5045493;28;20184;-80
2022/03/21 01:36:02;;;;;;;7.60;3.72;;;;;;;;;;5044186;28;20040;-80
2022/03/21 01:38:28;;;;;;;5.55;3.42;;;;;;;;;;5040568;28;20071;-80
2022/03/21 01:40:54;;;;;;;7.72;3.55;;;;;;;;;;5041359;28;20045;-81
2022/03/21 01:43:20;;;;;;;6.63;3.95;;;;;;;;;;5040902;28;20030;-80
2022/03/21 01:45:46;;;;;;;5.88;3.60;;;;;;;;;;5039577;28;20041;-80
2022/03/21 01:48:12;;;;;;;6.90;3.17;;;;;;;;;;5050645;28;20056;-81
2022/03/21 01:50:40;;;;;;;7.57;3.50;;;;;;;;;;5046300;28;20041;-80
2022/03/21 01:55:52;;;;;;;10.18;3.85;;;;;;;;;;5061404;28;20076;-80
2022/03/21 01:58:20;;;;;;;6.20;3.00;;;;;;;;;;5041866;28;20021;-80
2022/03/21 02:00:46;;;;;;;9.63;3.83;;;;;;;;;;5037450;28;20033;-80
2022/03/21 02:03:14;;;;;;;7.10;3.22;;;;;;;;;;5035516;28;20089;-80
2022/03/21 02:05:40;;;;;;;6.50;3.65;;;;;;;;;;5040586;28;20037;-80
2022/03/21 02:08:06;;;;;;;7.18;3.78;;;;;;;;;;5042302;28;20033;-79
2022/03/21 02:10:32;;;;;;;5.97;2.83;;;;;;;;;;5043359;28;20382;-80
2022/03/21 02:12:58;;;;;;;6.45;3.20;;;;;;;;;;5041081;28;20025;-80
2022/03/21 02:15:25;;;;;;;7.05;3.38;;;;;;;;;;5044734;28;21190;-80
2022/03/21 02:17:57;;;;;;;18.75;4.20;;;;;;;;;;5038857;28;20104;-81
2022/03/21 02:20:23;;;;;;;6.28;3.10;;;;;;;;;;5040864;28;20111;-80
2022/03/21 02:22:54;;;;;;;10.57;3.83;;;;;;;;;;5042971;28;20049;-80
2022/03/21 02:25:29;;;;;;;8.43;2.78;;;;;;;;;;5042499;28;20025;-80
2022/03/21 02:27:57;;;;;;;6.85;3.42;;;;;;;;;;5039032;28;20037;-79
2022/03/21 02:30:25;;;;;;;7.65;3.65;;;;;;;;;;5044237;28;20805;-80
2022/03/21 02:32:51;;;;;;;7.70;3.75;;;;;;;;;;5039596;28;20187;-80
2022/03/21 02:35:17;;;;;;;11.73;4.05;;;;;;;;;;5039051;28;20550;-80
2022/03/21 02:37:45;;;;;;;8.05;4.13;;;;;;;;;;5037693;28;20636;-80
2022/03/21 02:40:11;;;;;;;9.25;3.20;;;;;;;;;;5044258;28;20419;-80
2022/03/21 02:42:37;;;;;;;14.77;3.45;;;;;;;;;;5043898;28;20033;-81
2022/03/21 02:45:03;;;;;;;8.23;3.47;;;;;;;;;;5038825;28;20032;-80
2022/03/21 02:47:29;;;;;;;6.97;3.53;;;;;;;;;;5043653;28;20082;-80
2022/03/21 02:49:55;;;;;;;4.95;3.20;;;;;;;;;;5037723;28;20026;-80
2022/03/21 02:52:21;;;;;;;6.28;2.92;;;;;;;;;;5040477;28;20068;-80
2022/03/21 02:54:47;;;;;;;5.70;2.72;;;;;;;;;;5038119;28;20540;-79
2022/03/21 02:57:13;;;;;;;8.18;3.72;;;;;;;;;;5032652;28;20163;-79
2022/03/21 02:59:39;;;;;;;8.98;3.63;;;;;;;;;;5040786;28;20032;-80
2022/03/21 03:02:07;;;;;;;6.82;3.20;;;;;;;;;;5041780;28;20037;-80
2022/03/21 03:04:33;;;;;;;6.72;3.70;;;;;;;;;;5037516;28;20390;-80
2022/03/21 03:06:59;;;;;;;8.70;4.30;;;;;;;;;;5042449;28;20664;-80
2022/03/21 03:09:24;;;;;;;6.93;3.15;;;;;;;;;;5041711;28;20037;-80
2022/03/21 03:11:50;;;;;;;6.55;2.92;;;;;;;;;;5048169;28;20542;-79
2022/03/21 03:14:16;;;;;;;10.30;3.80;;;;;;;;;;5045425;28;20025;-80
2022/03/21 03:16:42;;;;;;;9.52;3.58;;;;;;;;;;5044493;28;20043;-80
2022/03/21 03:19:09;;;;;;;8.57;3.50;;;;;;;;;;5043481;28;20079;-80
2022/03/21 03:21:39;;;;;;;7.35;3.50;;;;;;;;;;5047199;28;20029;-80
2022/03/21 03:24:06;;;;;;;7.82;3.72;;;;;;;;;;5042018;28;20033;-80
2022/03/21 03:26:32;;;;;;;5.63;2.92;;;;;;;;;;5042927;28;20299;-80
2022/03/21 03:28:58;;;;;;;6.78;3.88;;;;;;;;;;5048323;28;20083;-80
2022/03/21 03:31:24;;;;;;;7.57;4.25;;;;;;;;;;5041568;28;20037;-79
2022/03/21 03:33:50;;;;;;;8.40;3.95;;;;;;;;;;5048877;28;20025;-80
2022/03/21 03:36:16;;;;;;;6.47;2.75;;;;;;;;;;5039455;28;20425;-80
2022/03/21 03:38:43;;;;;;;14.13;4.97;;;;;;;;;;5046634;28;20186;-80
2022/03/21 03:41:09;;;;;;;7.75;3.53;;;;;;;;;;5050455;28;20075;-81
2022/03/21 03:43:36;;;;;;;8.73;3.65;;;;;;;;;;5040451;28;20078;-80
2022/03/21 03:46:02;;;;;;;10.82;3.78;;;;;;;;;;5041067;28;20041;-80
2022/03/21 03:48:28;;;;;;;6.07;2.83;;;;;;;;;;5047732;28;20032;-80
2022/03/21 03:50:55;;;;;;;8.23;3.85;;;;;;;;;;5042121;28;20040;-80
2022/03/21 03:53:21;;;;;;;10.13;3.00;;;;;;;;;;5043816;28;20032;-80
2022/03/21 03:55:47;;;;;;;4.85;3.53;;;;;;;;;;5046310;28;20030;-80
2022/03/21 03:58:13;;;;;;;7.38;3.08;;;;;;;;;;5040828;28;20017;-80
2022/03/21 04:00:39;;;;;;;8.65;3.95;;;;;;;;;;5034547;28;20037;-80
2022/03/21 04:05:50;;;;;;;7.63;3.30;;;;;;;;;;5047204;28;22240;-79
2022/03/21 04:08:19;;;;;;;5.07;3.08;;;;;;;;;;5045410;28;20025;-80
2022/03/21 04:10:45;;;;;;;10.02;4.88;;;;;;;;;;5043058;28;20025;-80
2022/03/21 04:13:11;;;;;;;5.28;3.17;;;;;;;;;;5036752;28;20045;-79
2022/03/21 04:15:37;;;;;;;7.20;3.47;;;;;;;;;;5038127;28;20029;-80
2022/03/21 04:18:04;;;;;;;4.63;2.65;;;;;;;;;;5047016;28;20515;-80
2022/03/21 04:20:31;;;;;;;6.18;3.25;;;;;;;;;;5047186;28;20039;-80
2022/03/21 04:23:00;;;;;;;7.45;2.88;;;;;;;;;;5042423;28;20041;-80
2022/03/21 04:25:27;;;;;;;7.13;3.65;;;;;;;;;;5042651;28;20092;-80
2022/03/21 04:27:53;;;;;;;7.15;3.78;;;;;;;;;;5041036;28;20048;-79
2022/03/21 04:30:19;;;;;;;6.30;3.63;;;;;;;;;;5042879;28;20033;-80
2022/03/21 04:32:45;;;;;;;7.85;3.50;;;;;;;;;;5039497;28;20041;-80
2022/03/21 04:35:11;;;;;;;8.60;4.20;;;;;;;;;;5036588;28;20079;-80
2022/03/21 04:37:37;;;;;;;6.97;2.50;;;;;;;;;;5038445;28;20022;-80
2022/03/21 04:40:04;;;;;;;5.43;3.20;;;;;;;;;;5042808;28;20175;-80
2022/03/21 04:42:30;;;;;;;6.13;3.20;;;;;;;;;;5042791;28;20040;-80
2022/03/21 04:44:56;;;;;;;6.32;3.47;;;;;;;;;;5039085;28;20060;-80
2022/03/21 04:47:22;;;;;;;6.22;4.13;;;;;;;;;;5041293;28;20043;-80
2022/03/21 04:49:48;;;;;;;6.20;3.45;;;;;;;;;;5046009;28;20028;-80
2022/03/21 04:52:14;;;;;;;6.65;2.70;;;;;;;;;;5049966;28;20033;-80
2022/03/21 04:54:40;;;;;;;5.68;3.28;;;;;;;;;;5043211;28;20455;-81
2022/03/21 04:57:08;;;;;;;6.57;4.38;;;;;;;;;;5038099;28;20017;-80
2022/03/21 04:59:34;;;;;;;6.60;3.88;;;;;;;;;;5042851;28;20029;-80
2022/03/21 05:02:01;;;;;;;3.92;2.17;;;;;;;;;;5034776;28;20110;-80
2022/03/21 05:04:27;;;;;;;7.35;3.03;;;;;;;;;;5044191;28;20105;-80
2022/03/21 05:06:57;;;;;;;9.85;3.50;;;;;;;;;;5044179;28;20033;-79
2022/03/21 05:09:23;;;;;;;5.78;2.78;;;;;;;;;;5051548;28;20120;-80
2022/03/21 05:11:49;;;;;;;11.07;4.38;;;;;;;;;;5032200;28;20035;-79
2022/03/21 05:14:18;;;;;;;5.32;2.80;;;;;;;;;;5040117;28;20053;-79
2022/03/21 05:16:44;;;;;;;7.45;3.65;;;;;;;;;;5049157;28;20040;-80
2022/03/21 05:19:10;;;;;;;6.82;3.13;;;;;;;;;;5043482;28;20025;-79
2022/03/21 05:21:36;;;;;;;7.60;3.40;;;;;;;;;;5039599;28;20036;-79
2022/03/21 05:32:16;;;;;;;10.43;3.47;;;;;;;;;;5035420;28;20035;-78
2022/03/21 05:37:26;;;;;;;7.28;3.67;;;;;;;;;;5033034;28;20044;-78
2022/03/21 05:42:37;;;;;;;5.25;3.65;;;;;;;;;;5043172;28;20685;-79
2022/03/21 05:45:03;;;;;;;5.45;2.92;;;;;;;;;;5045363;28;20040;-78
2022/03/21 05:47:29;;;;;;;7.60;3.67;;;;;;;;;;5037247;28;20056;-78
2022/03/21 05:49:55;;;;;;;6.95;4.00;;;;;;;;;;5041779;28;20029;-80
2022/03/21 05:52:21;;;;;;;6.15;3.45;;;;;;;;;;5038235;28;20025;-77
2022/03/21 05:54:47;;;;;;;7.53;3.75;;;;;;;;;;5037136;28;20075;-77
2022/03/21 05:57:13;;;;;;;11.60;4.18;;;;;;;;;;5042762;28;20125;-78
2022/03/21 06:02:23;;;;;;;10.88;4.07;;;;;;;;;;5047615;28;20075;-78
2022/03/21 06:04:49;;;;;;;7.22;3.85;;;;;;;;;;5051881;28;20029;-78
2022/03/21 06:07:16;;;;;;;8.30;4.28;;;;;;;;;;5038246;28;20041;-78
2022/03/21 06:09:43;;;;;;;12.90;4.97;;;;;;;;;;5041550;28;20065;-78
2022/03/21 06:12:09;;;;;;;25.45;7.30;;;;;;;;;;5041266;28;20025;-78
2022/03/21 06:14:35;;;;;;;25.45;7.53;;;;;;;;;;5045242;28;20032;-78
2022/03/21 06:17:01;;;;;;;9.40;4.18;;;;;;;;;;5042261;28;20025;-78
2022/03/21 06:19:27;;;;;;;5.55;2.42;;;;;;;;;;5046118;28;20055;-78
2022/03/21 06:21:53;;;;;;;4.57;3.22;;;;;;;;;;5046175;28;20021;-78
2022/03/21 06:24:19;;;;;;;4.97;2.78;;;;;;;;;;5035183;28;20538;-78
2022/03/21 06:26:46;;;;;;;8.32;4.07;;;;;;;;;;5046245;28;20057;-78
2022/03/21 06:29:12;;;;;;;13.40;5.78;;;;;;;;;;5057774;28;20017;-78
2022/03/21 06:31:38;;;;;;;13.38;5.10;;;;;;;;;;5048209;28;20028;-78
2022/03/21 06:34:04;;;;;;;18.15;6.68;;;;;;;;;;5059217;28;20044;-78
2022/03/21 06:36:30;;;;;;;11.30;5.90;;;;;;;;;;5057589;28;20029;-78
2022/03/21 06:38:56;;;;;;;8.38;4.40;;;;;;;;;;5056557;28;20460;-78
2022/03/21 06:41:22;;;;;;;15.05;4.93;;;;;;;;;;5055613;28;20059;-78
2022/03/21 06:43:48;;;;;;;13.85;4.60;;;;;;;;;;5048943;28;20144;-78
2022/03/21 06:46:14;;;;;;;13.23;5.85;;;;;;;;;;5043406;28;20029;-78
2022/03/21 06:48:41;;;;;;;8.43;4.85;;;;;;;;;;5052404;28;20041;-78
2022/03/21 06:51:07;;;;;;;10.20;4.57;;;;;;;;;;5054249;28;20040;-78
2022/03/21 06:53:33;;;;;;;7.75;3.83;;;;;;;;;;5053008;28;20108;-78
2022/03/21 06:55:59;;;;;;;12.40;5.32;;;;;;;;;;5057681;28;20060;-78
2022/03/21 06:58:25;;;;;;;11.88;4.45;;;;;;;;;;5051973;28;20029;-78
2022/03/21 07:00:52;;;;;;;8.85;3.75;;;;;;;;;;5052889;28;20036;-79
2022/03/21 07:03:19;;;;;;;9.52;4.43;;;;;;;;;;5057190;28;20025;-78
2022/03/21 07:05:45;;;;;;;7.25;3.97;;;;;;;;;;5048756;28;20047;-78
2022/03/21 07:08:11;;;;;;;6.50;3.28;;;;;;;;;;5047928;28;20095;-78
2022/03/21 07:10:40;;;;;;;17.13;4.45;;;;;;;;;;5054205;28;20040;-78
2022/03/21 07:13:06;;;;;;;10.00;3.90;;;;;;;;;;5047043;28;20037;-78
2022/03/21 07:15:32;;;;;;;11.68;4.25;;;;;;;;;;5052806;28;20021;-78
2022/03/21 07:17:58;;;;;;;15.70;6.07;;;;;;;;;;5051318;28;20035;-78
2022/03/21 07:20:28;;;;;;;17.30;4.80;;;;;;;;;;5045344;28;20049;-79
2022/03/21 07:22:54;;;;;;;12.68;5.15;;;;;;;;;;5048041;28;20116;-78
2022/03/21 07:25:20;;;;;;;6.18;4.30;;;;;;;;;;5041847;28;20108;-78
2022/03/21 07:27:46;;;;;;;9.68;4.20;;;;;;;;;;5038190;28;20899;-79
2022/03/21 07:30:15;;;;;;;7.35;4.05;;;;;;;;;;5046354;28;20044;-79
2022/03/21 07:32:42;;;;;;;10.85;4.07;;;;;;;;;;5040457;28;20055;-78
2022/03/21 07:35:08;;;;;;;13.05;4.85;;;;;;;;;;5039754;28;20056;-78
2022/03/21 07:37:40;;;;;;;8.15;4.43;;;;;;;;;;5050317;28;20379;-78
2022/03/21 07:40:09;;;;;;;8.18;4.05;;;;;;;;;;5041749;28;20075;-78
2022/03/21 07:42:36;;;;;;;9.02;3.33;;;;;;;;;;5040052;28;20053;-79
2022/03/21 07:47:46;;;;;;;5.97;3.53;;;;;;;;;;5045565;28;20089;-78
2022/03/21 07:50:12;;;;;;;11.70;2.92;;;;;;;;;;5050326;28;20060;-78
2022/03/21 07:52:38;;;;;;;12.00;3.55;;;;;;;;;;5053380;28;20025;-79
2022/03/21 07:55:04;;;;;;;8.68;2.92;;;;;;;;;;5049470;28;20025;-78
2022/03/21 07:57:30;;;;;;;6.43;3.25;;;;;;;;;;5050434;28;20085;-79
2022/03/21 07:59:56;;;;;;;8.35;4.53;;;;;;;;;;5045611;28;20084;-78
2022/03/21 08:02:25;;;;;;;9.05;3.35;;;;;;;;;;5046048;28;20123;-78
2022/03/21 08:04:52;;;;;;;6.05;3.58;;;;;;;;;;5054656;28;20033;-78
2022/03/21 08:07:18;;;;;;;6.97;3.20;;;;;;;;;;5051674;28;20041;-78
2022/03/21 08:09:46;;;;;;;6.78;3.05;;;;;;;;;;5048535;28;20048;-79
2022/03/21 08:12:12;;;;;;;7.75;3.25;;;;;;;;;;5054523;28;20041;-78
2022/03/21 08:14:38;;;;;;;8.73;3.78;;;;;;;;;;5047536;28;20028;-78
2022/03/21 08:17:04;;;;;;;8.70;4.18;;;;;;;;;;5049769;28;20044;-78
2022/03/21 08:19:30;;;;;;;11.00;3.67;;;;;;;;;;5046845;28;20036;-78
2022/03/21 08:21:56;;;;;;;5.47;3.35;;;;;;;;;;5051559;28;20048;-78
2022/03/21 08:24:23;;;;;;;6.28;2.92;;;;;;;;;;5040058;28;20033;-78
2022/03/21 08:26:49;;;;;;;7.95;3.55;;;;;;;;;;5047742;28;20045;-79
2022/03/21 08:29:15;;;;;;;9.80;3.80;;;;;;;;;;5042767;28;20033;-79
2022/03/21 08:31:41;;;;;;;10.02;3.58;;;;;;;;;;5048613;28;20025;-78
2022/03/21 08:34:07;;;;;;;8.55;3.25;;;;;;;;;;5056261;28;20025;-79
2022/03/21 08:36:33;;;;;;;6.57;3.60;;;;;;;;;;5057364;28;20037;-78
2022/03/21 08:38:59;;;;;;;8.35;4.53;;;;;;;;;;5052468;28;20029;-78
2022/03/21 08:41:25;;;;;;;7.13;3.90;;;;;;;;;;5052040;28;20446;-79
2022/03/21 08:43:52;;;;;;;7.25;3.65;;;;;;;;;;5058386;28;20036;-79
2022/03/21 08:46:18;;;;;;;8.93;3.97;;;;;;;;;;5052069;28;20049;-79
2022/03/21 08:51:28;;;;;;;11.80;3.50;;;;;;;;;;5058674;28;20040;-79
2022/03/21 08:53:55;;;;;;;6.40;3.55;;;;;;;;;;5050083;28;20017;-79
2022/03/21 08:56:21;;;;;;;6.53;3.55;;;;;;;;;;5054087;28;20025;-79
2022/03/21 08:58:47;;;;;;;7.47;3.95;;;;;;;;;;5051368;28;20639;-79
2022/03/21 09:01:13;;;;;;;10.50;4.55;;;;;;;;;;5053629;28;20382;-79
2022/03/21 09:03:39;;;;;;;5.47;3.53;;;;;;;;;;5055898;28;20397;-79
2022/03/21 09:06:05;;;;;;;8.77;4.10;;;;;;;;;;5049434;28;20041;-79
2022/03/21 09:08:31;;;;;;;7.75;3.58;;;;;;;;;;5047373;28;20059;-79
2022/03/21 09:10:57;;;;;;;7.70;3.83;;;;;;;;;;5051730;28;20040;-79
2022/03/21 09:13:23;;;;;;;8.00;3.60;;;;;;;;;;5053871;28;20029;-80
2022/03/21 09:15:49;;;;;;;8.80;4.50;;;;;;;;;;5055554;28;20105;-79
2022/03/21 09:18:15;;;;;;;7.28;4.55;;;;;;;;;;5062019;28;20024;-80
2022/03/21 09:20:41;;;;;;;10.50;4.82;;;;;;;;;;5044721;28;20081;-79
2022/03/21 09:23:07;;;;;;;10.00;4.32;;;;;;;;;;5044005;28;20045;-79
2022/03/21 09:25:34;;;;;;;18.52;4.88;;;;;;;;;;5048036;28;20583;-79
2022/03/21 09:28:00;;;;;;;17.15;5.00;;;;;;;;;;5058979;28;20106;-79
2022/03/21 09:30:26;;;;;;;10.63;4.40;;;;;;;;;;5057504;28;20033;-80
2022/03/21 09:32:52;;;;;;;9.30;4.43;;;;;;;;;;5055360;28;20040;-79
2022/03/21 09:35:18;;;;;;;9.25;4.43;;;;;;;;;;5057801;28;20311;-79
2022/03/21 09:37:44;;;;;;;9.43;4.90;;;;;;;;;;5052358;28;20047;-79
2022/03/21 09:40:10;;;;;;;14.63;5.97;;;;;;;;;;5052467;28;20036;-79
2022/03/21 09:42:36;;;;;;;20.60;5.95;;;;;;;;;;5056110;28;20056;-79
2022/03/21 09:45:03;;;;;;;8.55;4.18;;;;;;;;;;5056397;28;20029;-79
2022/03/21 09:50:16;;;;;;;10.50;4.72;;;;;;;;;;5052787;28;20072;-79
2022/03/21 09:52:42;;;;;;;12.40;3.70;;;;;;;;;;5052672;28;20037;-79
2022/03/21 09:55:08;;;;;;;8.68;3.90;;;12.60;82.00;;;;;;5042543;28;20163;-79
2022/03/21 09:57:35;;;;;;;9.60;4.10;;;;;;;;;;5045613;28;20029;-79
2022/03/21 10:00:01;;;;;;;10.07;5.10;;;;;;;;;;5049972;28;20029;-79
2022/03/21 10:02:27;;;;;;;9.10;4.20;;;;;;;;;;5054085;28;20071;-79
2022/03/21 10:04:53;;;;;;;7.22;4.00;;;;;;;;;;5050610;28;20025;-80
2022/03/21 10:07:26;;;;;;;8.45;3.78;;;;;;;;;;5052915;28;20040;-79
2022/03/21 10:10:09;;;;;;;12.63;4.20;;;;;;;;;;5051945;28;20045;-79
2022/03/21 10:12:36;;;;;;;9.50;4.13;;;;;;;;;;5046111;28;20683;-79
2022/03/21 10:15:06;;;;;;;11.40;3.95;;;;;;;;;;5046837;28;20021;-79
2022/03/21 10:17:32;;;;;;;13.60;4.22;;;;;;;;;;5045906;28;20025;-79
2022/03/21 10:19:59;;;;;;;10.00;3.97;;;;;;;;;;5047863;28;20025;-79
2022/03/21 10:22:34;;;;;;;9.70;4.60;;;;;;;;;;5051569;28;20195;-79
2022/03/21 10:25:06;;;;;;;13.05;4.45;;;;;;;;;;5045271;28;20037;-80
2022/03/21 10:27:33;;;;;;;9.23;3.85;;;;;;;;;;5047953;28;20409;-78
2022/03/21 10:30:04;;;;;;;11.85;4.65;;;;;;;;;;5055813;28;20040;-79
2022/03/21 10:32:34;;;;;;;7.50;3.67;;;;;;;;;;5046841;28;20033;-79
2022/03/21 10:35:22;;;;;;;11.05;4.38;;;13.30;72.70;;;;;;5046141;28;20024;-79
2022/03/21 10:37:51;;;;;;;9.63;4.15;;;;;;;;;;5039759;28;20114;-79
2022/03/21 10:40:26;;;;;;;8.88;3.97;;;13.40;70.80;;;;;;5049464;28;20025;-79
2022/03/21 10:42:56;;;;;;;8.00;3.22;;;;;;;;;;5055210;28;20569;-79
2022/03/21 10:45:23;;;;;;;13.23;4.15;;;;;;;;;;5049405;28;20026;-79
2022/03/21 10:47:50;;;;;;;6.35;3.85;;;;;;;;;;5051652;28;20055;-80
2022/03/21 10:50:26;;;;;;;5.30;3.83;;;13.50;67.10;;;;;;5041993;28;20041;-79
2022/03/21 10:53:06;;;;;;;9.77;4.30;;;13.60;69.30;;;;;;5040184;28;20579;-80
2022/03/21 10:55:32;;;;;;;11.63;3.90;;;;;;;;;;5041219;28;20021;-79
2022/03/21 10:57:57;;;;;;;10.38;4.55;;;;;;;;;;5046573;28;20028;-79
2022/03/21 11:00:31;;;;;;;8.38;3.25;;;14.20;65.40;;;;;;5052342;28;20096;-80
2022/03/21 11:03:06;;;;;;;9.10;4.18;;;;;;;;;;5053773;28;20554;-79
2022/03/21 11:05:34;;;;;;;9.27;4.38;;;;;;;;;;5050366;28;20048;-79
2022/03/21 11:08:00;;;;;;;8.10;3.95;;;;;;;;;;5044986;28;20560;-79
2022/03/21 11:10:27;;;;;;;8.05;3.85;;;;;;;;;;5056203;28;20038;-79
2022/03/21 11:12:56;;;;;;;9.63;4.50;;;;;;;;;;5052907;28;20053;-79
2022/03/21 11:15:23;;;;;;;10.40;4.13;;;15.60;62.70;;;;;;5055195;28;20029;-79
2022/03/21 11:17:49;;;;;;;8.15;3.95;;;;;;;;;;5054382;28;20057;-79
2022/03/21 11:20:15;;;;;;;10.38;5.47;;;;;;;;;;5045680;28;20503;-80
2022/03/21 11:22:42;;;;;;;7.75;3.58;;;;;;;;;;5046225;28;20075;-79
2022/03/21 11:25:10;;;;;;;7.57;3.53;;;;;;;;;;5050400;28;20033;-79
2022/03/21 11:27:48;;;;;;;9.00;4.38;;;;;;;;;;5050336;28;20033;-80
2022/03/21 11:30:20;;;;;;;9.10;4.57;;;;;;;;;;5052925;28;20029;-80
2022/03/21 11:32:55;;;;;;;10.35;4.82;;;;;;;;;;5050039;28;20049;-79
2022/03/21 11:35:25;;;;;;;9.55;4.20;;;;;;;;;;5053481;28;20044;-79
2022/03/21 11:37:50;;;;;;;10.48;4.97;;;;;;;;;;5048702;28;20453;-80
2022/03/21 11:40:23;;;;;;;11.13;3.70;;;;;;;;;;5050568;28;20224;-80
2022/03/21 11:42:50;;;;;;;10.95;4.65;;;;;;;;;;5048455;28;20083;-81
2022/03/21 11:45:34;;;;;;;5.65;3.75;;;14.60;58.70;;;;;;5046740;28;20041;-80
2022/03/21 11:48:18;;;;;;;11.30;4.60;;;;;;;;;;5046201;28;20046;-81
2022/03/21 11:50:52;;;;;;;5.93;3.50;;;;;;;;;;5050730;28;20036;-81
2022/03/21 11:53:27;;;;;;;8.48;3.72;;;;;;;;;;5057347;28;20029;-81
2022/03/21 11:55:53;;;;;;;8.80;3.15;;;;;;;;;;5052184;28;20081;-80
2022/03/21 11:58:22;;;;;;;9.02;4.10;;;;;;;;;;5048695;28;20021;-81
2022/03/21 12:01:05;;;;;;;10.55;3.50;;;;;;;;;;5059834;28;20056;-81
2022/03/21 12:03:31;;;;;;;9.45;4.53;;;;;;;;;;5052275;28;21848;-80
2022/03/21 12:05:57;;;;;;;7.35;3.70;;;;;;;;;;5056519;28;20048;-81
2022/03/21 12:08:38;;;;;;;8.80;3.92;;;14.90;57.00;;;;;;5052757;28;20407;-80
2022/03/21 12:11:04;;;;;;;9.18;4.30;;;;;;;;;;5059994;28;20099;-81
2022/03/21 12:13:41;;;;;;;9.32;4.43;;;;;;;;;;5053214;28;20033;-80
2022/03/21 12:16:20;;;;;;;9.30;3.47;;;;;;;;;;5058788;28;20055;-80
2022/03/21 12:18:59;;;;;;;7.43;3.47;;;;;;;;;;5056665;28;20525;-80
2022/03/21 12:21:25;;;;;;;7.05;3.75;;;;;;;;;;5054279;28;20043;-79
2022/03/21 12:24:11;;;;;;;12.48;4.63;;;;;;;;;;5046330;28;20033;-79
2022/03/21 12:26:37;;;;;;;8.73;4.25;;;;;;;;;;5068171;28;20074;-80
2022/03/21 12:31:47;;;;;;;9.68;3.67;;;;;;;;;;5059663;28;20059;-79
2022/03/21 12:34:32;;;;;;;10.07;5.00;;;;;;;;;;5057292;28;21751;-80
2022/03/21 12:37:06;;;;;;;9.13;3.10;;;;;;;;;;5042434;28;20454;-80
2022/03/21 12:39:32;;;;;;;9.50;4.45;;;;;;;;;;5054426;28;20067;-79
2022/03/21 12:41:58;;;;;;;6.72;3.85;;;;;;;;;;5048726;28;20022;-79
2022/03/21 12:44:24;;;;;;;9.13;3.38;;;;;;;;;;5047920;28;20021;-78
2022/03/21 12:46:57;;;;;;;7.95;3.75;;;;;;;;;;5050510;28;20048;-79
2022/03/21 12:49:23;;;;;;;11.48;4.60;;;;;;;;;;5053575;28;20025;-79
2022/03/21 12:51:56;;;;;;;7.45;3.88;;;;;;;;;;5054774;28;20041;-80
2022/03/21 12:54:24;;;;;;;;;;;;;;;;;;5046130;28;20026;-80
2022/03/21 12:56:50;;;;;;;13.20;5.03;;;;;;;;;;5050590;28;20016;-80
2022/03/21 12:59:20;;;;;;;9.45;4.47;;;;;;;;;;5049433;28;20116;-80
2022/03/21 13:01:46;;;;;;;8.63;3.85;;;;;;;;;;5049953;28;20041;-80
2022/03/21 13:12:31;;;;;;;12.32;5.03;;;;;;;;;;5041403;28;20145;-78
2022/03/21 13:15:01;;;;;;;13.68;5.63;;;;;;;;;;5048389;28;20033;-79
2022/03/21 13:17:43;;;;;;;10.18;4.75;;;;;;;;;;5046429;28;20037;-79
2022/03/21 13:20:11;;;;;;;9.57;5.20;;;;;;;;;;5045176;28;20033;-79
2022/03/21 13:22:37;;;;;;;9.32;3.85;;;;;;;;;;5038590;28;20037;-79
2022/03/21 13:25:03;;;;;;;6.90;3.58;;;;;;;;;;5038903;28;20026;-80
2022/03/21 13:27:34;;;;;;;8.77;4.28;;;;;;;;;;5051938;28;20045;-79
2022/03/21 13:30:00;;;;;;;14.00;4.47;;;;;;;;;;5039002;28;20029;-79
2022/03/21 13:32:26;;;;;;;9.93;4.78;;;;;;;;;;5047793;28;20063;-78
2022/03/21 13:34:55;;;;;;;8.93;4.75;;;;;;;;;;5045693;28;20026;-79
2022/03/21 13:37:24;;;;;;;9.15;3.35;;;;;;;;;;5051705;28;20033;-80
2022/03/21 13:39:59;;;;;;;10.55;5.75;;;;;;;;;;5052118;28;20029;-80
2022/03/21 13:42:25;;;;;;;14.43;5.03;;;;;;;;;;5048443;28;20047;-79
2022/03/21 13:44:55;;;;;;;10.02;4.57;;;15.10;56.40;;;;;;5049983;28;20121;-79
2022/03/21 13:47:21;;;;;;;10.60;4.65;;;;;;;;;;5046451;28;20101;-80
2022/03/21 13:49:52;;;;;;;15.70;6.45;;;;;;;;;;5060217;28;20049;-80
2022/03/21 13:52:36;;;;;;;8.73;3.90;;;;;;;;;;5045947;28;20095;-79
2022/03/21 13:55:03;;;;;;;9.73;4.28;;;;;;;;;;5050390;28;20033;-80
2022/03/21 13:57:28;;;;;;;7.90;3.88;;;;;;;;;;5053594;28;20041;-80
2022/03/21 14:00:00;;;;;;;10.88;4.35;;;;;;;;;;5051595;28;20036;-80
2022/03/21 14:02:29;;;;;;;9.43;3.83;;;;;;;;;;5041570;28;20549;-79
2022/03/21 14:04:55;;;;;;;9.80;4.57;;;;;;;;;;5046477;28;20030;-82
2022/03/21 14:07:30;;;;;;;12.50;4.57;;;;;;;;;;5045042;28;23039;-85
2022/03/21 14:09:57;;;;;;;7.60;3.80;;;;;;;;;;5053361;28;20060;-82
2022/03/21 14:12:27;;;;;;;13.52;4.13;;;;;;;;;;5046365;28;20037;-83
2022/03/21 14:14:53;;;;;;;11.52;4.20;;;;;;;;;;5051681;28;20521;-82
2022/03/21 14:17:19;;;;;;;6.18;3.45;;;;;;;;;;5044079;28;20039;-84
2022/03/21 14:19:45;;;;;;;13.18;3.78;;;;;;;;;;5040993;28;20044;-82
2022/03/21 14:22:11;;;;;;;7.97;3.80;;;;;;;;;;5044456;28;20135;-82
2022/03/21 14:24:37;;;;;;;20.02;4.20;;;;;;;;;;5043150;28;20025;-81
2022/03/21 14:27:06;;;;;;;17.38;4.93;;;;;;;;;;5048104;28;20116;-81
2022/03/21 14:29:32;;;;;;;18.42;6.35;;;;;;;;;;5037182;28;20706;-81
2022/03/21 14:31:58;;;;;;;15.85;4.00;;;;;;;;;;5047665;28;20040;-81
2022/03/21 14:34:25;;;;;;;15.95;5.55;;;;;;;;;;5053580;28;20025;-81
2022/03/21 14:36:53;;;;;;;7.63;4.35;;;;;;;;;;5046312;28;20037;-81
2022/03/21 14:39:19;;;;;;;9.25;4.20;;;;;;;;;;5049507;28;20030;-81
2022/03/21 14:41:45;;;;;;;9.55;4.13;;;;;;;;;;5049748;28;20025;-81
2022/03/21 14:44:11;;;;;;;9.73;4.13;;;;;;;;;;5055057;28;20021;-81
2022/03/21 14:46:37;;;;;;;9.98;4.07;;;;;;;;;;5052908;28;20107;-81
2022/03/21 14:49:05;;;;;;;8.40;4.25;;;;;;;;;;5045830;28;20477;-81
2022/03/21 14:51:34;;;;;;;14.02;4.63;;;;;;;;;;5047024;28;20873;-80
2022/03/21 14:54:00;;;;;;;14.57;5.28;;;;;;;;;;5058540;28;20044;-81
2022/03/21 14:56:28;;;;;;;15.38;5.32;;;;;;;;;;5058160;28;20287;-81
2022/03/21 14:58:56;;;;;;;12.30;5.32;;;14.80;75.40;;;;;;5056510;28;20369;-82
2022/03/21 15:01:22;;;;;;;12.90;4.72;;;;;;;;;;5052933;28;20054;-80
2022/03/21 15:03:48;;;;;;;9.30;3.65;;;;;;;;;;5054793;28;20033;-81
2022/03/21 15:06:14;;;;;;;9.93;4.70;;;;;;;;;;5053133;28;20056;-81
2022/03/21 15:08:40;;;;;;;10.15;3.60;;;;;;;;;;5061480;28;20025;-81
2022/03/21 15:11:11;;;;;;;10.57;5.13;;;;;;;;;;5050744;28;20030;-81
2022/03/21 15:13:37;;;;;;;9.30;3.88;;;;;;;;;;5058828;28;20024;-81
2022/03/21 15:16:04;;;;;;;10.55;4.93;;;;;;;;;;5047090;28;20037;-81